sensor_id;sensor_type;location;lat;lon;timestamp;temperature;humidity
49218;DHT22;35045;51.194;7.268;2022-12-29T00:01:35;8.60;99.90
49218;DHT22;35045;51.194;7.268;2022-12-29T00:04:03;8.70;99.90
49218;DHT22;35045;51.194;7.268;2022-12-29T00:06:31;8.70;99.90
49218;DHT22;35045;51.194;7.268;2022-12-29T00:08:57;8.70;99.90
49218;DHT22;35045;51.194;7.268;2022-12-29T00:11:26;8.70;99.90
49218;DHT22;35045;51.194;7.268;2022-12-29T00:13:54;8.80;99.90
49218;DHT22;35045;51.194;7.268;2022-12-29T00:16:41;8.70;99.90
49218;DHT22;35045;51.194;7.268;2022-12-29T00:19:07;8.70;99.90
49218;DHT22;35045;51.194;7.268;2022-12-29T00:21:53;8.70;99.90
49218;DHT22;35045;51.194;7.268;2022-12-29T00:24:38;8.80;99.90
49218;DHT22;35045;51.194;7.268;2022-12-29T00:27:23;8.80;99.90
49218;DHT22;35045;51.194;7.268;2022-12-29T00:30:10;8.80;99.90
49218;DHT22;35045;51.194;7.268;2022-12-29T00:32:55;8.80;99.90
49218;DHT22;35045;51.194;7.268;2022-12-29T00:35:52;8.80;99.90
49218;DHT22;35045;51.194;7.268;2022-12-29T00:38:20;8.80;99.90
49218;DHT22;35045;51.194;7.268;2022-12-29T00:41:05;8.90;99.90
49218;DHT22;35045;51.194;7.268;2022-12-29T00:43:50;8.90;99.90
49218;DHT22;35045;51.194;7.268;2022-12-29T00:46:39;8.90;99.90
49218;DHT22;35045;51.194;7.268;2022-12-29T00:49:07;9.00;99.90
49218;DHT22;35045;51.194;7.268;2022-12-29T00:51:53;9.00;99.90
49218;DHT22;35045;51.194;7.268;2022-12-29T00:54:20;8.90;99.90
49218;DHT22;35045;51.194;7.268;2022-12-29T00:56:50;8.90;99.90
49218;DHT22;35045;51.194;7.268;2022-12-29T00:59:17;9.00;99.90
49218;DHT22;35045;51.194;7.268;2022-12-29T01:01:45;9.00;99.90
49218;DHT22;35045;51.194;7.268;2022-12-29T01:04:13;9.00;99.90
49218;DHT22;35045;51.194;7.268;2022-12-29T01:06:40;9.00;99.90
49218;DHT22;35045;51.194;7.268;2022-12-29T01:09:07;9.00;99.90
49218;DHT22;35045;51.194;7.268;2022-12-29T01:11:52;9.00;99.90
49218;DHT22;35045;51.194;7.268;2022-12-29T01:14:19;9.00;99.90
49218;DHT22;35045;51.194;7.268;2022-12-29T01:16:45;9.00;99.90
49218;DHT22;35045;51.194;7.268;2022-12-29T01:19:12;9.10;99.90
49218;DHT22;35045;51.194;7.268;2022-12-29T01:21:38;9.10;99.90
49218;DHT22;35045;51.194;7.268;2022-12-29T01:24:05;9.10;99.90
49218;DHT22;35045;51.194;7.268;2022-12-29T01:26:31;9.10;99.90
49218;DHT22;35045;51.194;7.268;2022-12-29T01:28:57;9.10;99.90
49218;DHT22;35045;51.194;7.268;2022-12-29T01:31:24;9.10;99.90
49218;DHT22;35045;51.194;7.268;2022-12-29T01:33:50;9.10;99.90
49218;DHT22;35045;51.194;7.268;2022-12-29T01:36:18;9.10;99.90
49218;DHT22;35045;51.194;7.268;2022-12-29T01:38:45;9.10;99.90
49218;DHT22;35045;51.194;7.268;2022-12-29T01:41:13;9.10;99.90
49218;DHT22;35045;51.194;7.268;2022-12-29T01:43:53;9.10;99.90
49218;DHT22;35045;51.194;7.268;2022-12-29T01:48:48;9.10;99.90
49218;DHT22;35045;51.194;7.268;2022-12-29T01:51:16;9.10;99.90
49218;DHT22;35045;51.194;7.268;2022-12-29T01:53:42;9.10;99.90
49218;DHT22;35045;51.194;7.268;2022-12-29T01:56:12;9.10;99.90
49218;DHT22;35045;51.194;7.268;2022-12-29T01:58:42;9.10;99.90
49218;DHT22;35045;51.194;7.268;2022-12-29T02:01:11;9.20;99.90
49218;DHT22;35045;51.194;7.268;2022-12-29T02:03:37;9.10;99.90
49218;DHT22;35045;51.194;7.268;2022-12-29T02:06:26;9.20;99.90
49218;DHT22;35045;51.194;7.268;2022-12-29T02:08:55;9.20;99.90
49218;DHT22;35045;51.194;7.268;2022-12-29T02:11:24;9.20;99.90
49218;DHT22;35045;51.194;7.268;2022-12-29T02:13:52;9.20;99.90
49218;DHT22;35045;51.194;7.268;2022-12-29T02:16:35;9.20;99.90
49218;DHT22;35045;51.194;7.268;2022-12-29T02:22:19;9.30;99.90
49218;DHT22;35045;51.194;7.268;2022-12-29T02:27:52;9.30;99.90
49218;DHT22;35045;51.194;7.268;2022-12-29T02:39:25;9.40;99.90
49218;DHT22;35045;51.194;7.268;2022-12-29T02:50:26;9.50;99.90
49218;DHT22;35045;51.194;7.268;2022-12-29T02:53:01;9.50;99.90
49218;DHT22;35045;51.194;7.268;2022-12-29T02:55:28;9.50;99.90
49218;DHT22;35045;51.194;7.268;2022-12-29T03:00:56;9.60;99.90
49218;DHT22;35045;51.194;7.268;2022-12-29T03:06:43;9.60;99.90
49218;DHT22;35045;51.194;7.268;2022-12-29T03:12:03;9.60;99.90
49218;DHT22;35045;51.194;7.268;2022-12-29T03:14:58;9.60;99.90
49218;DHT22;35045;51.194;7.268;2022-12-29T03:18:24;9.70;99.90
49218;DHT22;35045;51.194;7.268;2022-12-29T03:20:58;9.60;99.90
49218;DHT22;35045;51.194;7.268;2022-12-29T03:23:27;9.60;99.90
49218;DHT22;35045;51.194;7.268;2022-12-29T03:25:57;9.60;99.90
49218;DHT22;35045;51.194;7.268;2022-12-29T03:28:29;9.60;99.90
49218;DHT22;35045;51.194;7.268;2022-12-29T03:30:58;9.60;99.90
49218;DHT22;35045;51.194;7.268;2022-12-29T03:33:27;9.60;99.90
49218;DHT22;35045;51.194;7.268;2022-12-29T03:35:58;9.70;99.90
49218;DHT22;35045;51.194;7.268;2022-12-29T03:38:35;9.60;99.90
49218;DHT22;35045;51.194;7.268;2022-12-29T03:41:08;9.60;99.90
49218;DHT22;35045;51.194;7.268;2022-12-29T03:43:35;9.60;99.90
49218;DHT22;35045;51.194;7.268;2022-12-29T03:46:01;9.50;99.90
49218;DHT22;35045;51.194;7.268;2022-12-29T03:48:27;9.50;99.90
49218;DHT22;35045;51.194;7.268;2022-12-29T03:50:53;9.50;99.90
49218;DHT22;35045;51.194;7.268;2022-12-29T03:53:20;9.40;99.90
49218;DHT22;35045;51.194;7.268;2022-12-29T03:55:46;9.40;99.90
49218;DHT22;35045;51.194;7.268;2022-12-29T03:58:12;9.40;99.90
49218;DHT22;35045;51.194;7.268;2022-12-29T04:00:38;9.40;99.90
49218;DHT22;35045;51.194;7.268;2022-12-29T04:03:04;9.40;99.90
49218;DHT22;35045;51.194;7.268;2022-12-29T04:05:30;9.40;99.90
49218;DHT22;35045;51.194;7.268;2022-12-29T04:07:57;9.50;99.90
49218;DHT22;35045;51.194;7.268;2022-12-29T04:10:23;9.40;99.90
49218;DHT22;35045;51.194;7.268;2022-12-29T04:12:49;9.50;99.90
49218;DHT22;35045;51.194;7.268;2022-12-29T04:15:15;9.50;99.90
49218;DHT22;35045;51.194;7.268;2022-12-29T04:17:41;9.50;99.90
49218;DHT22;35045;51.194;7.268;2022-12-29T04:20:08;9.50;99.90
49218;DHT22;35045;51.194;7.268;2022-12-29T04:23:03;9.50;99.90
49218;DHT22;35045;51.194;7.268;2022-12-29T04:25:33;9.50;99.90
49218;DHT22;35045;51.194;7.268;2022-12-29T04:27:59;9.60;99.90
49218;DHT22;35045;51.194;7.268;2022-12-29T04:30:25;9.60;99.90
49218;DHT22;35045;51.194;7.268;2022-12-29T04:32:51;9.60;99.90
49218;DHT22;35045;51.194;7.268;2022-12-29T04:35:18;9.60;99.90
49218;DHT22;35045;51.194;7.268;2022-12-29T04:37:44;9.60;99.90
49218;DHT22;35045;51.194;7.268;2022-12-29T04:40:10;9.60;99.90
49218;DHT22;35045;51.194;7.268;2022-12-29T04:42:37;9.60;99.90
49218;DHT22;35045;51.194;7.268;2022-12-29T04:45:03;9.60;99.90
49218;DHT22;35045;51.194;7.268;2022-12-29T04:47:29;9.70;99.90
49218;DHT22;35045;51.194;7.268;2022-12-29T04:49:55;9.70;99.90
49218;DHT22;35045;51.194;7.268;2022-12-29T04:52:21;9.70;99.90
49218;DHT22;35045;51.194;7.268;2022-12-29T04:54:48;9.70;99.90
49218;DHT22;35045;51.194;7.268;2022-12-29T04:57:14;9.80;99.90
49218;DHT22;35045;51.194;7.268;2022-12-29T04:59:40;9.80;99.90
49218;DHT22;35045;51.194;7.268;2022-12-29T05:02:06;9.80;99.90
49218;DHT22;35045;51.194;7.268;2022-12-29T05:04:32;9.80;99.90
49218;DHT22;35045;51.194;7.268;2022-12-29T05:06:58;9.80;99.90
49218;DHT22;35045;51.194;7.268;2022-12-29T05:09:24;9.90;99.90
49218;DHT22;35045;51.194;7.268;2022-12-29T05:11:51;9.90;99.90
49218;DHT22;35045;51.194;7.268;2022-12-29T05:14:17;9.90;99.90
49218;DHT22;35045;51.194;7.268;2022-12-29T05:16:43;9.90;99.90
49218;DHT22;35045;51.194;7.268;2022-12-29T05:19:09;9.90;99.90
49218;DHT22;35045;51.194;7.268;2022-12-29T05:21:35;9.90;99.90
49218;DHT22;35045;51.194;7.268;2022-12-29T05:24:02;10.00;99.90
49218;DHT22;35045;51.194;7.268;2022-12-29T05:26:28;10.00;99.90
49218;DHT22;35045;51.194;7.268;2022-12-29T05:28:54;10.00;99.90
49218;DHT22;35045;51.194;7.268;2022-12-29T05:31:20;10.00;99.90
49218;DHT22;35045;51.194;7.268;2022-12-29T05:33:46;10.00;99.90
49218;DHT22;35045;51.194;7.268;2022-12-29T05:36:13;10.00;99.90
49218;DHT22;35045;51.194;7.268;2022-12-29T05:38:39;10.00;99.90
49218;DHT22;35045;51.194;7.268;2022-12-29T05:41:05;10.00;99.90
49218;DHT22;35045;51.194;7.268;2022-12-29T05:43:31;10.00;99.90
49218;DHT22;35045;51.194;7.268;2022-12-29T05:45:57;10.10;99.90
49218;DHT22;35045;51.194;7.268;2022-12-29T05:48:23;10.10;99.90
49218;DHT22;35045;51.194;7.268;2022-12-29T05:50:51;10.10;99.90
49218;DHT22;35045;51.194;7.268;2022-12-29T05:53:17;10.10;99.90
49218;DHT22;35045;51.194;7.268;2022-12-29T05:55:46;10.10;99.90
49218;DHT22;35045;51.194;7.268;2022-12-29T05:58:15;10.10;99.90
49218;DHT22;35045;51.194;7.268;2022-12-29T06:00:41;10.10;99.90
49218;DHT22;35045;51.194;7.268;2022-12-29T06:03:07;10.10;99.90
49218;DHT22;35045;51.194;7.268;2022-12-29T06:05:33;10.10;99.90
49218;DHT22;35045;51.194;7.268;2022-12-29T06:07:59;10.10;99.90
49218;DHT22;35045;51.194;7.268;2022-12-29T06:10:26;10.20;99.90
49218;DHT22;35045;51.194;7.268;2022-12-29T06:12:52;10.20;99.90
49218;DHT22;35045;51.194;7.268;2022-12-29T06:15:18;10.10;99.90
49218;DHT22;35045;51.194;7.268;2022-12-29T06:17:44;10.10;99.90
49218;DHT22;35045;51.194;7.268;2022-12-29T06:20:10;10.20;99.90
49218;DHT22;35045;51.194;7.268;2022-12-29T06:22:36;10.10;99.90
49218;DHT22;35045;51.194;7.268;2022-12-29T06:25:03;10.10;99.90
49218;DHT22;35045;51.194;7.268;2022-12-29T06:27:31;10.10;99.90
49218;DHT22;35045;51.194;7.268;2022-12-29T06:29:57;10.10;99.90
49218;DHT22;35045;51.194;7.268;2022-12-29T06:32:23;10.10;99.90
49218;DHT22;35045;51.194;7.268;2022-12-29T06:34:49;10.10;99.90
49218;DHT22;35045;51.194;7.268;2022-12-29T06:37:15;10.10;99.90
49218;DHT22;35045;51.194;7.268;2022-12-29T06:39:42;10.00;99.90
49218;DHT22;35045;51.194;7.268;2022-12-29T06:42:09;10.00;99.90
49218;DHT22;35045;51.194;7.268;2022-12-29T06:44:36;10.00;99.90
49218;DHT22;35045;51.194;7.268;2022-12-29T06:47:02;10.00;99.90
49218;DHT22;35045;51.194;7.268;2022-12-29T06:49:28;10.00;99.90
49218;DHT22;35045;51.194;7.268;2022-12-29T06:51:54;10.00;99.90
49218;DHT22;35045;51.194;7.268;2022-12-29T06:54:20;10.00;99.90
49218;DHT22;35045;51.194;7.268;2022-12-29T06:56:46;10.00;99.90
49218;DHT22;35045;51.194;7.268;2022-12-29T06:59:12;10.00;99.90
49218;DHT22;35045;51.194;7.268;2022-12-29T07:01:39;10.00;99.90
49218;DHT22;35045;51.194;7.268;2022-12-29T07:04:05;10.00;99.90
49218;DHT22;35045;51.194;7.268;2022-12-29T07:06:31;10.00;99.90
49218;DHT22;35045;51.194;7.268;2022-12-29T07:08:57;10.00;99.90
49218;DHT22;35045;51.194;7.268;2022-12-29T07:11:24;10.00;99.90
49218;DHT22;35045;51.194;7.268;2022-12-29T07:13:50;10.00;99.90
49218;DHT22;35045;51.194;7.268;2022-12-29T07:16:17;10.10;99.90
49218;DHT22;35045;51.194;7.268;2022-12-29T07:18:43;10.10;99.90
49218;DHT22;35045;51.194;7.268;2022-12-29T07:21:09;10.10;99.90
49218;DHT22;35045;51.194;7.268;2022-12-29T07:23:35;10.00;99.90
49218;DHT22;35045;51.194;7.268;2022-12-29T07:26:04;9.90;99.90
49218;DHT22;35045;51.194;7.268;2022-12-29T07:28:31;9.90;99.90
49218;DHT22;35045;51.194;7.268;2022-12-29T07:30:58;9.90;99.90
49218;DHT22;35045;51.194;7.268;2022-12-29T07:33:25;9.80;99.90
49218;DHT22;35045;51.194;7.268;2022-12-29T07:35:51;9.80;99.90
49218;DHT22;35045;51.194;7.268;2022-12-29T07:38:18;9.80;99.90
49218;DHT22;35045;51.194;7.268;2022-12-29T07:40:44;9.80;99.90
49218;DHT22;35045;51.194;7.268;2022-12-29T07:43:10;9.80;99.90
49218;DHT22;35045;51.194;7.268;2022-12-29T07:45:36;9.80;99.90
49218;DHT22;35045;51.194;7.268;2022-12-29T07:48:03;9.90;99.90
49218;DHT22;35045;51.194;7.268;2022-12-29T07:50:29;9.80;99.90
49218;DHT22;35045;51.194;7.268;2022-12-29T07:52:55;9.80;99.90
49218;DHT22;35045;51.194;7.268;2022-12-29T07:55:21;9.80;99.90
49218;DHT22;35045;51.194;7.268;2022-12-29T07:57:48;9.70;99.90
49218;DHT22;35045;51.194;7.268;2022-12-29T08:00:14;9.80;99.90
49218;DHT22;35045;51.194;7.268;2022-12-29T08:02:40;9.80;99.90
49218;DHT22;35045;51.194;7.268;2022-12-29T08:05:07;9.80;99.90
49218;DHT22;35045;51.194;7.268;2022-12-29T08:07:33;9.80;99.90
49218;DHT22;35045;51.194;7.268;2022-12-29T08:09:59;9.80;99.90
49218;DHT22;35045;51.194;7.268;2022-12-29T08:12:25;9.80;99.90
49218;DHT22;35045;51.194;7.268;2022-12-29T08:14:51;9.80;99.90
49218;DHT22;35045;51.194;7.268;2022-12-29T08:17:18;9.80;99.90
49218;DHT22;35045;51.194;7.268;2022-12-29T08:19:44;9.80;99.90
49218;DHT22;35045;51.194;7.268;2022-12-29T08:22:10;9.80;99.90
49218;DHT22;35045;51.194;7.268;2022-12-29T08:24:36;9.80;99.90
49218;DHT22;35045;51.194;7.268;2022-12-29T08:27:02;9.80;99.90
49218;DHT22;35045;51.194;7.268;2022-12-29T08:29:34;9.80;99.90
49218;DHT22;35045;51.194;7.268;2022-12-29T08:32:00;9.80;99.90
49218;DHT22;35045;51.194;7.268;2022-12-29T08:34:26;9.80;99.90
49218;DHT22;35045;51.194;7.268;2022-12-29T08:36:52;9.80;99.90
49218;DHT22;35045;51.194;7.268;2022-12-29T08:39:18;9.80;99.90
49218;DHT22;35045;51.194;7.268;2022-12-29T08:41:44;9.80;99.90
49218;DHT22;35045;51.194;7.268;2022-12-29T08:44:11;9.80;99.90
49218;DHT22;35045;51.194;7.268;2022-12-29T08:46:37;9.80;99.90
49218;DHT22;35045;51.194;7.268;2022-12-29T08:49:03;9.80;99.90
49218;DHT22;35045;51.194;7.268;2022-12-29T08:51:29;9.80;99.90
49218;DHT22;35045;51.194;7.268;2022-12-29T08:53:55;9.80;99.90
49218;DHT22;35045;51.194;7.268;2022-12-29T08:56:22;9.80;99.90
49218;DHT22;35045;51.194;7.268;2022-12-29T08:58:52;9.80;99.90
49218;DHT22;35045;51.194;7.268;2022-12-29T09:01:19;9.70;99.90
49218;DHT22;35045;51.194;7.268;2022-12-29T09:03:46;9.80;99.90
49218;DHT22;35045;51.194;7.268;2022-12-29T09:06:32;9.80;99.90
49218;DHT22;35045;51.194;7.268;2022-12-29T09:09:01;9.80;99.90
49218;DHT22;35045;51.194;7.268;2022-12-29T09:11:27;9.80;99.90
49218;DHT22;35045;51.194;7.268;2022-12-29T09:13:54;9.80;99.90
49218;DHT22;35045;51.194;7.268;2022-12-29T09:16:22;9.90;99.90
49218;DHT22;35045;51.194;7.268;2022-12-29T09:18:48;9.90;99.90
49218;DHT22;35045;51.194;7.268;2022-12-29T09:21:15;9.90;99.90
49218;DHT22;35045;51.194;7.268;2022-12-29T09:23:41;9.90;99.90
49218;DHT22;35045;51.194;7.268;2022-12-29T09:26:07;9.90;99.90
49218;DHT22;35045;51.194;7.268;2022-12-29T09:28:34;9.90;99.90
49218;DHT22;35045;51.194;7.268;2022-12-29T09:31:01;9.90;99.90
49218;DHT22;35045;51.194;7.268;2022-12-29T09:33:27;9.90;99.90
49218;DHT22;35045;51.194;7.268;2022-12-29T09:35:56;9.80;99.90
49218;DHT22;35045;51.194;7.268;2022-12-29T09:38:24;9.80;99.90
49218;DHT22;35045;51.194;7.268;2022-12-29T09:40:56;9.90;99.90
49218;DHT22;35045;51.194;7.268;2022-12-29T09:46:25;9.80;99.90
49218;DHT22;35045;51.194;7.268;2022-12-29T09:49:29;9.80;99.90
49218;DHT22;35045;51.194;7.268;2022-12-29T09:52:04;9.80;99.90
49218;DHT22;35045;51.194;7.268;2022-12-29T09:54:52;9.80;99.90
49218;DHT22;35045;51.194;7.268;2022-12-29T09:57:27;9.80;99.90
49218;DHT22;35045;51.194;7.268;2022-12-29T10:00:01;9.80;99.90
49218;DHT22;35045;51.194;7.268;2022-12-29T10:02:38;9.90;99.90
49218;DHT22;35045;51.194;7.268;2022-12-29T10:05:46;9.90;99.90
49218;DHT22;35045;51.194;7.268;2022-12-29T10:10:59;9.80;99.90
49218;DHT22;35045;51.194;7.268;2022-12-29T10:16:35;9.90;99.90
49218;DHT22;35045;51.194;7.268;2022-12-29T10:19:15;9.90;99.90
49218;DHT22;35045;51.194;7.268;2022-12-29T10:24:39;10.00;99.90
49218;DHT22;35045;51.194;7.268;2022-12-29T10:27:10;10.00;99.90
49218;DHT22;35045;51.194;7.268;2022-12-29T10:29:40;10.00;99.90
49218;DHT22;35045;51.194;7.268;2022-12-29T10:35:18;9.90;99.90
49218;DHT22;35045;51.194;7.268;2022-12-29T10:40:49;9.80;99.90
49218;DHT22;35045;51.194;7.268;2022-12-29T10:43:27;9.80;99.90
49218;DHT22;35045;51.194;7.268;2022-12-29T10:46:00;9.80;99.90
49218;DHT22;35045;51.194;7.268;2022-12-29T10:48:31;9.80;99.90
49218;DHT22;35045;51.194;7.268;2022-12-29T10:51:01;9.80;99.90
49218;DHT22;35045;51.194;7.268;2022-12-29T10:53:39;9.90;99.90
49218;DHT22;35045;51.194;7.268;2022-12-29T10:56:15;9.80;99.90
49218;DHT22;35045;51.194;7.268;2022-12-29T10:58:46;9.80;99.90
49218;DHT22;35045;51.194;7.268;2022-12-29T11:01:15;9.80;99.90
49218;DHT22;35045;51.194;7.268;2022-12-29T11:06:50;9.90;99.90
49218;DHT22;35045;51.194;7.268;2022-12-29T11:09:27;9.90;99.90
49218;DHT22;35045;51.194;7.268;2022-12-29T11:12:19;9.90;99.90
49218;DHT22;35045;51.194;7.268;2022-12-29T11:14:46;9.90;99.90
49218;DHT22;35045;51.194;7.268;2022-12-29T11:17:16;9.90;99.90
49218;DHT22;35045;51.194;7.268;2022-12-29T11:19:43;9.90;99.90
49218;DHT22;35045;51.194;7.268;2022-12-29T11:22:26;9.90;99.90
49218;DHT22;35045;51.194;7.268;2022-12-29T11:24:54;9.90;99.90
49218;DHT22;35045;51.194;7.268;2022-12-29T11:27:25;9.90;99.90
49218;DHT22;35045;51.194;7.268;2022-12-29T11:29:53;9.90;99.90
49218;DHT22;35045;51.194;7.268;2022-12-29T11:34:51;9.90;99.90
49218;DHT22;35045;51.194;7.268;2022-12-29T11:37:26;9.90;99.90
49218;DHT22;35045;51.194;7.268;2022-12-29T11:39:58;9.90;99.90
49218;DHT22;35045;51.194;7.268;2022-12-29T11:42:41;9.90;99.90
49218;DHT22;35045;51.194;7.268;2022-12-29T11:45:18;9.90;99.90
49218;DHT22;35045;51.194;7.268;2022-12-29T11:47:48;9.90;99.90
49218;DHT22;35045;51.194;7.268;2022-12-29T11:50:26;9.80;99.90
49218;DHT22;35045;51.194;7.268;2022-12-29T11:52:59;9.80;99.90
49218;DHT22;35045;51.194;7.268;2022-12-29T11:55:27;9.80;99.90
49218;DHT22;35045;51.194;7.268;2022-12-29T11:57:55;9.80;99.90
49218;DHT22;35045;51.194;7.268;2022-12-29T12:00:24;9.80;99.90
49218;DHT22;35045;51.194;7.268;2022-12-29T12:03:08;9.70;99.90
49218;DHT22;35045;51.194;7.268;2022-12-29T12:05:54;9.80;99.90
49218;DHT22;35045;51.194;7.268;2022-12-29T12:08:42;9.70;99.90
49218;DHT22;35045;51.194;7.268;2022-12-29T12:11:16;9.70;99.90
49218;DHT22;35045;51.194;7.268;2022-12-29T12:14:11;9.70;99.90
49218;DHT22;35045;51.194;7.268;2022-12-29T12:16:43;9.80;99.90
49218;DHT22;35045;51.194;7.268;2022-12-29T12:19:32;9.70;99.90
49218;DHT22;35045;51.194;7.268;2022-12-29T12:22:13;9.70;99.90
49218;DHT22;35045;51.194;7.268;2022-12-29T12:24:58;9.70;99.90
49218;DHT22;35045;51.194;7.268;2022-12-29T12:30:22;9.70;99.90
49218;DHT22;35045;51.194;7.268;2022-12-29T12:40:56;9.60;99.90
49218;DHT22;35045;51.194;7.268;2022-12-29T12:46:01;9.60;99.90
49218;DHT22;35045;51.194;7.268;2022-12-29T12:54:59;9.60;99.90
49218;DHT22;35045;51.194;7.268;2022-12-29T12:58:03;9.50;99.90
49218;DHT22;35045;51.194;7.268;2022-12-29T13:01:22;9.50;99.90
49218;DHT22;35045;51.194;7.268;2022-12-29T13:06:45;9.50;99.90
49218;DHT22;35045;51.194;7.268;2022-12-29T13:09:41;9.50;99.90
49218;DHT22;35045;51.194;7.268;2022-12-29T13:12:22;9.50;99.90
49218;DHT22;35045;51.194;7.268;2022-12-29T13:22:57;9.50;99.90
49218;DHT22;35045;51.194;7.268;2022-12-29T13:36:34;9.50;99.90
49218;DHT22;35045;51.194;7.268;2022-12-29T13:39:19;9.50;99.90
49218;DHT22;35045;51.194;7.268;2022-12-29T13:41:51;9.60;99.90
49218;DHT22;35045;51.194;7.268;2022-12-29T13:44:25;9.50;99.90
49218;DHT22;35045;51.194;7.268;2022-12-29T13:46:58;9.50;99.90
49218;DHT22;35045;51.194;7.268;2022-12-29T13:49:26;9.50;99.90
49218;DHT22;35045;51.194;7.268;2022-12-29T14:02:36;9.50;99.90
49218;DHT22;35045;51.194;7.268;2022-12-29T14:05:27;9.50;99.90
49218;DHT22;35045;51.194;7.268;2022-12-29T14:08:02;9.50;99.90
49218;DHT22;35045;51.194;7.268;2022-12-29T14:10:45;9.50;99.90
49218;DHT22;35045;51.194;7.268;2022-12-29T14:13:18;9.50;99.90
49218;DHT22;35045;51.194;7.268;2022-12-29T14:15:56;9.50;99.90
49218;DHT22;35045;51.194;7.268;2022-12-29T14:18:25;9.40;99.90
49218;DHT22;35045;51.194;7.268;2022-12-29T14:20:58;9.40;99.90
49218;DHT22;35045;51.194;7.268;2022-12-29T14:23:38;9.40;99.90
49218;DHT22;35045;51.194;7.268;2022-12-29T14:28:37;9.40;99.90
49218;DHT22;35045;51.194;7.268;2022-12-29T14:36:39;9.30;99.90
49218;DHT22;35045;51.194;7.268;2022-12-29T14:42:06;9.30;99.90
49218;DHT22;35045;51.194;7.268;2022-12-29T14:44:47;9.30;99.90
49218;DHT22;35045;51.194;7.268;2022-12-29T14:47:27;9.20;99.90
49218;DHT22;35045;51.194;7.268;2022-12-29T14:57:50;9.10;99.90
49218;DHT22;35045;51.194;7.268;2022-12-29T15:00:21;9.10;99.90
49218;DHT22;35045;51.194;7.268;2022-12-29T15:03:05;9.10;99.90
49218;DHT22;35045;51.194;7.268;2022-12-29T15:05:43;9.00;99.90
49218;DHT22;35045;51.194;7.268;2022-12-29T15:08:12;9.10;99.90
49218;DHT22;35045;51.194;7.268;2022-12-29T15:10:48;9.00;99.90
49218;DHT22;35045;51.194;7.268;2022-12-29T15:13:22;9.10;99.90
49218;DHT22;35045;51.194;7.268;2022-12-29T15:15:49;9.10;99.90
49218;DHT22;35045;51.194;7.268;2022-12-29T15:18:24;9.00;99.90
49218;DHT22;35045;51.194;7.268;2022-12-29T15:20:53;9.10;99.90
49218;DHT22;35045;51.194;7.268;2022-12-29T15:23:20;9.10;99.90
49218;DHT22;35045;51.194;7.268;2022-12-29T15:25:57;9.00;99.90
49218;DHT22;35045;51.194;7.268;2022-12-29T15:28:25;9.10;99.90
49218;DHT22;35045;51.194;7.268;2022-12-29T15:30:53;9.00;99.90
49218;DHT22;35045;51.194;7.268;2022-12-29T15:33:22;9.00;99.90
49218;DHT22;35045;51.194;7.268;2022-12-29T15:35:52;9.00;99.90
49218;DHT22;35045;51.194;7.268;2022-12-29T15:38:27;9.00;99.90
49218;DHT22;35045;51.194;7.268;2022-12-29T15:41:05;8.90;99.90
49218;DHT22;35045;51.194;7.268;2022-12-29T15:46:12;8.90;99.90
49218;DHT22;35045;51.194;7.268;2022-12-29T15:48:39;8.90;99.90
49218;DHT22;35045;51.194;7.268;2022-12-29T15:51:29;8.90;99.90
49218;DHT22;35045;51.194;7.268;2022-12-29T15:53:56;8.90;99.90
49218;DHT22;35045;51.194;7.268;2022-12-29T15:56:23;8.90;99.90
49218;DHT22;35045;51.194;7.268;2022-12-29T15:58:51;8.90;99.90
49218;DHT22;35045;51.194;7.268;2022-12-29T16:01:31;8.90;99.90
49218;DHT22;35045;51.194;7.268;2022-12-29T16:03:59;8.90;99.90
49218;DHT22;35045;51.194;7.268;2022-12-29T16:06:33;8.90;99.90
49218;DHT22;35045;51.194;7.268;2022-12-29T16:09:05;8.90;99.90
49218;DHT22;35045;51.194;7.268;2022-12-29T16:11:38;8.90;99.90
49218;DHT22;35045;51.194;7.268;2022-12-29T16:14:20;8.90;99.90
49218;DHT22;35045;51.194;7.268;2022-12-29T16:16:49;8.80;99.90
49218;DHT22;35045;51.194;7.268;2022-12-29T16:19:29;8.90;99.90
49218;DHT22;35045;51.194;7.268;2022-12-29T16:21:58;8.90;99.90
49218;DHT22;35045;51.194;7.268;2022-12-29T16:24:30;8.80;99.90
49218;DHT22;35045;51.194;7.268;2022-12-29T16:29:31;8.80;99.90
49218;DHT22;35045;51.194;7.268;2022-12-29T16:31:58;8.80;99.90
49218;DHT22;35045;51.194;7.268;2022-12-29T16:36:59;8.80;99.90
49218;DHT22;35045;51.194;7.268;2022-12-29T16:42:00;8.70;99.90
49218;DHT22;35045;51.194;7.268;2022-12-29T16:44:31;8.70;99.90
49218;DHT22;35045;51.194;7.268;2022-12-29T16:49:32;8.60;99.90
49218;DHT22;35045;51.194;7.268;2022-12-29T16:51:59;8.60;99.90
49218;DHT22;35045;51.194;7.268;2022-12-29T16:54:35;8.60;99.90
49218;DHT22;35045;51.194;7.268;2022-12-29T16:57:02;8.50;99.90
49218;DHT22;35045;51.194;7.268;2022-12-29T16:59:37;8.60;99.90
49218;DHT22;35045;51.194;7.268;2022-12-29T17:02:14;8.50;99.90
49218;DHT22;35045;51.194;7.268;2022-12-29T17:04:41;8.50;99.90
49218;DHT22;35045;51.194;7.268;2022-12-29T17:07:22;8.50;99.90
49218;DHT22;35045;51.194;7.268;2022-12-29T17:09:49;8.50;99.90
49218;DHT22;35045;51.194;7.268;2022-12-29T17:12:29;8.50;99.90
49218;DHT22;35045;51.194;7.268;2022-12-29T17:15:09;8.50;99.90
49218;DHT22;35045;51.194;7.268;2022-12-29T17:17:46;8.50;99.90
49218;DHT22;35045;51.194;7.268;2022-12-29T17:22:43;8.50;99.90
49218;DHT22;35045;51.194;7.268;2022-12-29T17:25:14;8.50;99.90
49218;DHT22;35045;51.194;7.268;2022-12-29T17:30:16;8.40;99.90
49218;DHT22;35045;51.194;7.268;2022-12-29T17:32:52;8.40;99.90
49218;DHT22;35045;51.194;7.268;2022-12-29T17:35:20;8.40;99.90
49218;DHT22;35045;51.194;7.268;2022-12-29T17:37:47;8.40;99.90
49218;DHT22;35045;51.194;7.268;2022-12-29T17:42:46;8.40;99.90
49218;DHT22;35045;51.194;7.268;2022-12-29T17:45:17;8.30;99.90
49218;DHT22;35045;51.194;7.268;2022-12-29T17:47:45;8.30;99.90
49218;DHT22;35045;51.194;7.268;2022-12-29T17:50:17;8.20;99.90
49218;DHT22;35045;51.194;7.268;2022-12-29T17:52:51;8.20;99.90
49218;DHT22;35045;51.194;7.268;2022-12-29T17:55:19;8.20;99.90
49218;DHT22;35045;51.194;7.268;2022-12-29T17:57:46;8.20;99.90
49218;DHT22;35045;51.194;7.268;2022-12-29T18:00:18;8.10;99.90
49218;DHT22;35045;51.194;7.268;2022-12-29T18:02:45;8.10;99.90
49218;DHT22;35045;51.194;7.268;2022-12-29T18:07:46;8.10;99.90
49218;DHT22;35045;51.194;7.268;2022-12-29T18:10:13;8.00;99.90
49218;DHT22;35045;51.194;7.268;2022-12-29T18:12:42;8.00;99.90
49218;DHT22;35045;51.194;7.268;2022-12-29T18:17:48;7.90;99.90
49218;DHT22;35045;51.194;7.268;2022-12-29T18:20:15;8.00;99.90
49218;DHT22;35045;51.194;7.268;2022-12-29T18:22:42;8.00;99.90
49218;DHT22;35045;51.194;7.268;2022-12-29T18:25:29;8.00;99.90
49218;DHT22;35045;51.194;7.268;2022-12-29T18:28:01;7.90;99.90
49218;DHT22;35045;51.194;7.268;2022-12-29T18:30:27;7.90;99.90
49218;DHT22;35045;51.194;7.268;2022-12-29T18:32:54;7.80;99.90
49218;DHT22;35045;51.194;7.268;2022-12-29T18:35:37;7.80;99.90
49218;DHT22;35045;51.194;7.268;2022-12-29T18:38:04;7.70;99.90
49218;DHT22;35045;51.194;7.268;2022-12-29T18:40:35;7.60;99.90
49218;DHT22;35045;51.194;7.268;2022-12-29T18:43:02;7.50;99.90
49218;DHT22;35045;51.194;7.268;2022-12-29T18:45:31;7.50;99.90